Terminal Aerodrome Forecast
Issued by NWS Cleveland, OH

Home | Current Version | Previous Version | Graphics & Text | Print | Product List | Glossary On
Versions: 1 2 3 4 5 6 7 8 9 10 11 12 13 14
947
FTUS41 KCLE 200532
TAFTOL
TAF
KTOL 200532Z 2006/2106 00000KT P6SM SCT250
     FM200800 00000KT P6SM BKN200
     FM201200 21004KT 5SM BR BKN100
     FM201300 21005KT 6SM BR BKN110
     FM201500 22007KT P6SM VCTS SCT045CB BKN120
     FM202000 25011KT P6SM SCT045 BKN080
     FM210200 29006KT P6SM SCT200=

USA.gov is the U.S. government's official web portal to all federal, state and local government web resources and services.